»·PEaware :: N800DW KSJC-KEUG

N800DW :: KSJC-KEUG

FLIGHT INFORMATION

Flight Status: Arrived
Operator: Privately registered:
United States
More flights under this callsign
Pilot: Scott L. (17677)
Aircraft: BEECH AIRCRAFT BARON
(BE58)
More flights by this aircraft type
Origin: KSJC Mineta San Jose Intl
United States
Destination: KEUG Mahlon Sweet
United States
More flights between these airports :: More routes between these airports
Route: SUNOL9 SUNOL V334 SAC V23 EUG
File this flight plan on PilotEdge
Remarks:
Altitude:
(Current/Filed)
10,000ft
Speed:
(Current/Filed)
180kts
Departed: 30-Aug-18 03:45 PM
Arrived: 30-Aug-18 06:13 PM
Distance/Time
Traveled:
409nm/2:27
Distance/Time
To Go:
Arrived

Flight Plot

Page will automatically refresh every two minutes.

Flight plan parsing failed; only flown route is shown


Map Options




Map Legend


Flown Route
Filed Route
Departure Airport
Arrival Airport
Navaid (VOR, NDB)
Fix

Horizontal Profiles

Position Reports

Time Latitude Longitude Heading Altitude Ground
Speed
30-Aug-18 15:25 37.363548 -121.937357 109 43ft 0kts
30-Aug-18 15:26 37.363548 -121.937357 109 43ft 0kts
30-Aug-18 15:27 37.363548 -121.937357 109 43ft 0kts
30-Aug-18 15:28 37.363548 -121.937357 109 43ft 0kts
30-Aug-18 15:29 37.363548 -121.937357 109 43ft 0kts
30-Aug-18 15:30 37.363548 -121.937357 109 43ft 0kts
30-Aug-18 15:31 37.363548 -121.937357 109 43ft 0kts
30-Aug-18 15:32 37.363548 -121.937357 109 43ft 0kts
30-Aug-18 15:33 37.363548 -121.937357 109 43ft 0kts
30-Aug-18 15:34 37.363548 -121.937357 109 43ft 0kts
30-Aug-18 15:35 37.363548 -121.937357 109 43ft 0kts
30-Aug-18 15:36 37.363548 -121.937357 109 43ft 0kts
30-Aug-18 15:37 37.363548 -121.937357 109 43ft 0kts
30-Aug-18 15:38 37.363548 -121.937357 109 43ft 0kts
30-Aug-18 15:39 37.363548 -121.937357 109 43ft 0kts
30-Aug-18 15:40 37.363466 -121.937072 108 43ft 9kts
30-Aug-18 15:41 37.359777 -121.931154 139 43ft 25kts
30-Aug-18 15:42 37.354305 -121.924271 75 43ft 26kts
30-Aug-18 15:43 37.352173 -121.919773 68 43ft 0kts
30-Aug-18 15:44 37.352173 -121.919773 68 43ft 0kts
30-Aug-18 15:45 37.352928 -121.919225 337 43ft 14kts
30-Aug-18 15:46 37.372422 -121.943691 317 320ft 154kts
30-Aug-18 15:47 37.406692 -121.979130 2 811ft 164kts
30-Aug-18 15:48 37.436400 -121.938644 52 1712ft 157kts
30-Aug-18 15:49 37.460049 -121.894885 41 2878ft 141kts
30-Aug-18 15:50 37.493413 -121.873044 19 4080ft 135kts
30-Aug-18 15:51 37.528036 -121.853095 20 5006ft 150kts
30-Aug-18 15:52 37.570983 -121.827725 21 4984ft 182kts
30-Aug-18 15:53 37.617712 -121.799798 21 4983ft 188kts
30-Aug-18 15:54 37.665214 -121.771355 21 4981ft 189kts
30-Aug-18 15:55 37.710468 -121.744169 21 5560ft 170kts
30-Aug-18 15:56 37.752140 -121.719162 20 6265ft 165kts
30-Aug-18 15:57 37.793598 -121.694283 21 6896ft 165kts
30-Aug-18 15:58 37.834363 -121.669804 20 7635ft 159kts
30-Aug-18 15:59 37.874224 -121.645823 20 8333ft 159kts
30-Aug-18 16:00 37.914086 -121.621839 21 8991ft 159kts
30-Aug-18 16:01 37.953953 -121.597796 21 9612ft 159kts
30-Aug-18 16:02 37.993221 -121.574059 21 10045ft 167kts
30-Aug-18 16:03 38.037406 -121.547321 21 10035ft 181kts
30-Aug-18 16:04 38.083265 -121.519493 23 10023ft 185kts
30-Aug-18 16:05 38.130172 -121.491042 22 10036ft 189kts
30-Aug-18 16:06 38.177298 -121.462538 22 10039ft 188kts
30-Aug-18 16:07 38.224618 -121.433781 22 10037ft 189kts
30-Aug-18 16:08 38.272095 -121.404827 22 10037ft 190kts
30-Aug-18 16:09 38.319788 -121.375672 22 10035ft 190kts
30-Aug-18 16:10 38.367453 -121.346448 24 10032ft 190kts
30-Aug-18 16:11 38.414931 -121.316726 23 10029ft 190kts
30-Aug-18 16:12 38.462470 -121.287468 23 10027ft 190kts
30-Aug-18 16:13 38.509928 -121.258312 23 10024ft 190kts
30-Aug-18 16:14 38.557637 -121.228936 23 10022ft 190kts
30-Aug-18 16:15 38.605533 -121.199690 22 10020ft 191kts
30-Aug-18 16:16 38.653720 -121.171425 22 10026ft 191kts
30-Aug-18 16:17 38.693101 -121.193541 306 10026ft 177kts
30-Aug-18 16:18 38.728293 -121.236413 317 10022ft 179kts
30-Aug-18 16:19 38.756623 -121.286243 293 10027ft 174kts
30-Aug-18 16:20 38.766646 -121.343965 292 10031ft 173kts
30-Aug-18 16:21 38.785220 -121.401380 288 10024ft 174kts
30-Aug-18 16:22 38.802281 -121.459410 288 10020ft 174kts
30-Aug-18 16:23 38.819164 -121.517845 288 10018ft 174kts
30-Aug-18 16:24 38.835970 -121.576272 287 10018ft 175kts
30-Aug-18 16:25 38.852799 -121.634926 287 10018ft 175kts
30-Aug-18 16:26 38.875841 -121.687345 336 10028ft 183kts
30-Aug-18 16:27 38.925580 -121.705257 342 10022ft 186kts
30-Aug-18 16:28 38.975283 -121.721436 343 10021ft 186kts
30-Aug-18 16:29 39.025604 -121.737679 343 10021ft 187kts
30-Aug-18 16:30 39.075900 -121.753909 343 10021ft 187kts
30-Aug-18 16:31 39.126074 -121.770128 343 10020ft 187kts
30-Aug-18 16:32 39.176353 -121.786409 343 10020ft 186kts
30-Aug-18 16:33 39.226623 -121.802709 343 10021ft 186kts
30-Aug-18 16:34 39.276708 -121.818974 343 10024ft 186kts
30-Aug-18 16:35 39.326958 -121.835411 341 10027ft 186kts
30-Aug-18 16:36 39.375832 -121.856905 338 10029ft 185kts
30-Aug-18 16:37 39.424493 -121.878499 338 10027ft 185kts
30-Aug-18 16:38 39.472926 -121.900017 338 10048ft 184kts
30-Aug-18 16:39 39.521394 -121.921580 338 10048ft 185kts
30-Aug-18 16:40 39.570236 -121.943342 338 10048ft 186kts
30-Aug-18 16:41 39.619105 -121.965148 338 10048ft 186kts
30-Aug-18 16:42 39.667922 -121.986964 338 10048ft 186kts
30-Aug-18 16:43 39.716849 -122.008863 338 10048ft 186kts
30-Aug-18 16:44 39.765601 -122.030716 338 10048ft 186kts
30-Aug-18 16:45 39.814429 -122.052637 338 10048ft 186kts
30-Aug-18 16:46 39.863194 -122.074561 338 10048ft 186kts
30-Aug-18 16:48 39.911957 -122.096518 338 10046ft 186kts
30-Aug-18 16:48 39.952697 -122.114887 338 10043ft 186kts
30-Aug-18 16:50 40.009662 -122.140611 338 10040ft 186kts
30-Aug-18 16:50 40.050432 -122.159050 338 10039ft 186kts
30-Aug-18 16:51 40.099294 -122.181179 338 10039ft 186kts
30-Aug-18 16:53 40.155599 -122.206716 338 10038ft 186kts
30-Aug-18 16:53 40.196306 -122.225212 338 10055ft 185kts
30-Aug-18 16:55 40.253119 -122.251063 338 10053ft 186kts
30-Aug-18 16:55 40.293903 -122.269651 338 10050ft 186kts
30-Aug-18 16:56 40.342831 -122.291980 338 10046ft 186kts
30-Aug-18 16:57 40.391655 -122.314295 338 10042ft 186kts
30-Aug-18 16:58 40.440522 -122.336663 338 10040ft 186kts
30-Aug-18 16:59 40.489309 -122.359030 338 10038ft 186kts
30-Aug-18 17:00 40.538063 -122.381417 338 10038ft 186kts
30-Aug-18 17:01 40.586970 -122.403908 338 10038ft 186kts
30-Aug-18 17:02 40.635530 -122.426266 338 10013ft 184kts
30-Aug-18 17:03 40.683590 -122.448434 338 10010ft 183kts
30-Aug-18 17:04 40.731659 -122.470655 338 10010ft 183kts
30-Aug-18 17:05 40.779743 -122.492891 338 10012ft 183kts
30-Aug-18 17:06 40.827750 -122.515166 337 10012ft 183kts
30-Aug-18 17:07 40.875759 -122.537423 338 10014ft 183kts
30-Aug-18 17:08 40.923635 -122.559695 338 10008ft 183kts
30-Aug-18 17:09 40.971555 -122.582000 338 10013ft 183kts
30-Aug-18 17:10 41.019492 -122.604338 337 10019ft 182kts
30-Aug-18 17:11 41.067074 -122.626566 337 10026ft 181kts
30-Aug-18 17:12 41.112031 -122.647591 337 10034ft 179kts
30-Aug-18 17:13 41.158481 -122.669357 336 10039ft 179kts
30-Aug-18 17:14 41.205537 -122.691433 336 10039ft 179kts
30-Aug-18 17:15 41.252665 -122.713575 336 10003ft 180kts
30-Aug-18 17:16 41.299589 -122.735653 336 10003ft 179kts
30-Aug-18 17:17 41.346627 -122.757822 336 10003ft 179kts
30-Aug-18 17:18 41.393584 -122.779986 336 10003ft 179kts
30-Aug-18 17:19 41.440620 -122.802220 336 10003ft 179kts
30-Aug-18 17:20 41.490467 -122.810670 351 10003ft 182kts
30-Aug-18 17:21 41.540862 -122.815791 351 10002ft 182kts
30-Aug-18 17:22 41.591288 -122.820939 351 10002ft 182kts
30-Aug-18 17:23 41.641772 -122.826100 351 10002ft 182kts
30-Aug-18 17:24 41.692318 -122.831277 351 10002ft 182kts
30-Aug-18 17:25 41.742792 -122.836455 351 10002ft 182kts
30-Aug-18 17:26 41.793292 -122.841644 351 10002ft 182kts
30-Aug-18 17:27 41.843807 -122.846842 351 10017ft 181kts
30-Aug-18 17:28 41.894040 -122.852021 351 10021ft 182kts
30-Aug-18 17:29 41.944614 -122.857240 351 10019ft 182kts
30-Aug-18 17:30 41.995154 -122.862465 351 10013ft 182kts
30-Aug-18 17:31 42.045562 -122.867685 351 10008ft 182kts
30-Aug-18 17:32 42.095978 -122.872916 351 10003ft 182kts
30-Aug-18 17:33 42.144789 -122.877989 351 10003ft 181kts
30-Aug-18 17:34 42.195229 -122.883238 351 10002ft 181kts
30-Aug-18 17:35 42.245565 -122.888483 351 10002ft 181kts
30-Aug-18 17:36 42.295356 -122.893681 351 10002ft 181kts
30-Aug-18 17:37 42.345576 -122.898932 351 10002ft 181kts
30-Aug-18 17:38 42.395941 -122.904206 351 10002ft 181kts
30-Aug-18 17:39 42.446202 -122.909478 351 10002ft 181kts
30-Aug-18 17:40 42.496357 -122.916063 348 10002ft 181kts
30-Aug-18 17:41 42.546171 -122.925235 348 10002ft 181kts
30-Aug-18 17:42 42.595967 -122.934417 348 10002ft 181kts
30-Aug-18 17:43 42.645753 -122.943611 348 10002ft 181kts
30-Aug-18 17:44 42.695663 -122.952841 348 10002ft 181kts
30-Aug-18 17:45 42.745424 -122.962059 348 10006ft 180kts
30-Aug-18 17:46 42.795002 -122.971260 348 10018ft 180kts
30-Aug-18 17:47 42.844581 -122.980473 348 10033ft 180kts
30-Aug-18 17:48 42.894165 -122.989703 348 10050ft 179kts
30-Aug-18 17:49 42.943505 -122.998906 348 9998ft 182kts
30-Aug-18 17:50 42.993251 -123.008159 348 9995ft 179kts
30-Aug-18 17:51 43.042448 -123.016877 348 10010ft 178kts
30-Aug-18 17:52 43.091624 -123.025598 348 10011ft 178kts
30-Aug-18 17:53 43.139858 -123.034161 348 10011ft 179kts
30-Aug-18 17:54 43.189027 -123.042904 348 10011ft 179kts
30-Aug-18 17:55 43.238333 -123.051685 348 10011ft 179kts
30-Aug-18 17:56 43.287704 -123.060492 348 10011ft 179kts
30-Aug-18 17:57 43.337262 -123.069348 348 10011ft 179kts
30-Aug-18 17:58 43.386610 -123.078181 348 10011ft 179kts
30-Aug-18 17:59 43.437464 -123.087308 348 9718ft 189kts
30-Aug-18 18:00 43.489865 -123.096705 348 9299ft 193kts
30-Aug-18 18:01 43.544196 -123.106464 349 8529ft 199kts
30-Aug-18 18:02 43.598700 -123.116267 349 7997ft 192kts
30-Aug-18 18:03 43.650716 -123.119847 351 7749ft 195kts
30-Aug-18 18:04 43.705626 -123.132196 347 7049ft 202kts
30-Aug-18 18:05 43.761080 -123.145544 347 6326ft 204kts
30-Aug-18 18:06 43.815329 -123.159443 340 6023ft 188kts
30-Aug-18 18:07 43.868078 -123.183243 339 5018ft 206kts
30-Aug-18 18:08 43.922345 -123.208439 339 4023ft 206kts
30-Aug-18 18:09 43.972756 -123.231882 339 4033ft 184kts
30-Aug-18 18:10 44.021875 -123.248858 348 3957ft 187kts
30-Aug-18 18:11 44.074625 -123.260667 351 3513ft 189kts
30-Aug-18 18:12 44.120274 -123.249712 21 1662ft 168kts
30-Aug-18 18:13 44.138622 -123.220890 146 636ft 96kts
30-Aug-18 18:14 44.116551 -123.218946 179 361ft 25kts
30-Aug-18 18:15 44.115861 -123.216943 178 361ft 12kts
30-Aug-18 18:16 44.115990 -123.215887 299 361ft 0kts
30-Aug-18 18:17 44.115990 -123.215887 299 361ft 0kts
30-Aug-18 18:18 44.115990 -123.215887 299 361ft 0kts

Navigation Log

Ident Type
Flight plan parsing failed, navigation log unavailable